createdAt,value
2023-03-05T00:00:41.780Z,98455.06
2023-03-05T00:11:13.542Z,98459.66
2023-03-05T00:21:40.952Z,98480.31
2023-03-05T00:32:02.409Z,98485.69
2023-03-05T00:42:23.663Z,98492.44
2023-03-05T00:52:45.367Z,98511.69
2023-03-05T01:03:07.050Z,98518.38
2023-03-05T01:13:28.634Z,98536.88
2023-03-05T01:23:50.072Z,98527.94
2023-03-05T01:34:11.532Z,98543.00
2023-03-05T01:44:34.396Z,98547.31
2023-03-05T01:55:00.032Z,98554.13
2023-03-05T02:05:35.106Z,98567.38
2023-03-05T02:15:59.798Z,98579.03
2023-03-05T02:26:21.412Z,98582.28
2023-03-05T02:36:42.882Z,98594.31
2023-03-05T02:47:04.355Z,98604.69
2023-03-05T02:57:26.874Z,98603.28
2023-03-05T03:07:50.233Z,98607.44
2023-03-05T03:18:11.780Z,98627.00
2023-03-05T03:28:33.079Z,98634.38
2023-03-05T03:38:54.034Z,98629.41
2023-03-05T03:49:20.062Z,98622.78
2023-03-05T03:59:41.446Z,98630.22
2023-03-05T04:10:03.689Z,98633.38
2023-03-05T04:20:26.204Z,98638.34
2023-03-05T04:30:47.995Z,98635.03
2023-03-05T04:41:09.273Z,98645.72
2023-03-05T04:51:30.594Z,98658.03
2023-03-05T05:01:52.165Z,98672.78
2023-03-05T05:12:13.418Z,98669.31
2023-03-05T05:22:35.368Z,98670.78
2023-03-05T05:32:57.200Z,98685.63
2023-03-05T05:43:18.618Z,98690.59
2023-03-05T05:53:40.338Z,98694.94
2023-03-05T06:04:02.495Z,98691.41
2023-03-05T06:14:07.560Z,98691.84
2023-03-05T06:24:29.227Z,98697.34
2023-03-05T06:34:51.469Z,98711.56
2023-03-05T06:45:12.820Z,98713.47
2023-03-05T06:55:39.764Z,98713.88
2023-03-05T07:06:06.454Z,98731.44
2023-03-05T07:16:31.674Z,98720.84
2023-03-05T07:26:52.878Z,98734.94
2023-03-05T07:37:14.462Z,98754.50
2023-03-05T07:47:36.803Z,98750.22
2023-03-05T07:57:58.341Z,98757.63
2023-03-05T08:08:19.440Z,98763.97
2023-03-05T08:18:41.841Z,98779.03
2023-03-05T08:29:03.394Z,98772.38
2023-03-05T08:39:24.542Z,98769.34
2023-03-05T08:49:46.404Z,98767.06
2023-03-05T09:00:10.218Z,98783.56
2023-03-05T09:10:31.537Z,98781.41
2023-03-05T09:20:54.199Z,98788.66
2023-03-05T09:31:15.903Z,98768.19
2023-03-05T09:42:04.814Z,98770.53
2023-03-05T09:52:36.832Z,98768.66
2023-03-05T10:03:06.528Z,98768.41
2023-03-05T10:13:37.335Z,98759.66
2023-03-05T10:24:16.812Z,98744.13
2023-03-05T10:35:01.974Z,98760.97
2023-03-05T10:45:41.931Z,98748.38
2023-03-05T10:56:05.839Z,98735.03
2023-03-05T11:06:39.459Z,98735.38
2023-03-05T11:17:25.658Z,98746.72
2023-03-05T11:27:58.014Z,98726.81
2023-03-05T11:38:25.164Z,98725.38
2023-03-05T11:48:47.011Z,98722.94
2023-03-05T11:59:23.798Z,98714.56
2023-03-05T12:09:53.368Z,98714.38
2023-03-05T12:20:33.887Z,98729.09
2023-03-05T12:31:00.075Z,98705.84
2023-03-05T12:41:25.433Z,98712.97
2023-03-05T12:51:53.538Z,98709.75
2023-03-05T13:02:23.909Z,98712.97
2023-03-05T13:12:53.168Z,98702.44
2023-03-05T13:23:15.267Z,98702.31
2023-03-05T13:33:37.369Z,98689.38
2023-03-05T13:44:01.719Z,98689.66
2023-03-05T13:54:25.235Z,98671.50
2023-03-05T14:04:47.626Z,98666.75
2023-03-05T14:15:23.005Z,98665.09
2023-03-05T14:25:44.482Z,98661.06
2023-03-05T14:36:07.297Z,98675.22
2023-03-05T14:46:29.704Z,98672.66
2023-03-05T14:56:51.778Z,98666.25
2023-03-05T15:07:26.462Z,98668.03
2023-03-05T15:17:55.071Z,98667.63
2023-03-05T15:28:17.210Z,98681.66
2023-03-05T15:38:38.964Z,98687.66
2023-03-05T15:49:01.162Z,98686.38
2023-03-05T15:59:22.784Z,98688.41
2023-03-05T16:09:48.270Z,98700.81
2023-03-05T16:20:11.899Z,98703.31
2023-03-05T16:30:36.151Z,98709.97
2023-03-05T16:41:07.812Z,98715.13
2023-03-05T16:51:30.936Z,98716.94
2023-03-05T17:01:52.426Z,98708.81
2023-03-05T17:12:13.823Z,98709.94
2023-03-05T17:22:35.637Z,98703.19
2023-03-05T17:32:57.430Z,98699.22
2023-03-05T17:43:19.020Z,98698.75
2023-03-05T17:53:41.266Z,98698.16
2023-03-05T18:04:03.263Z,98698.13
2023-03-05T18:14:07.097Z,98699.91
2023-03-05T18:24:28.583Z,98705.50
2023-03-05T18:34:50.691Z,98701.28
2023-03-05T18:45:16.589Z,98696.19
2023-03-05T18:55:37.998Z,98699.03
2023-03-05T19:05:59.393Z,98697.94
2023-03-05T19:16:23.620Z,98700.06
2023-03-05T19:26:45.171Z,98696.97
2023-03-05T19:37:06.977Z,98692.22
2023-03-05T19:47:28.307Z,98696.59
2023-03-05T19:57:49.849Z,98698.56
2023-03-05T20:08:11.331Z,98699.63
2023-03-05T20:18:32.793Z,98687.28
2023-03-05T20:28:56.339Z,98684.97
2023-03-05T20:39:17.917Z,98653.66
2023-03-05T20:49:39.366Z,98662.09
2023-03-05T21:00:00.750Z,98647.19
2023-03-05T21:10:23.661Z,98646.59
2023-03-05T21:20:45.217Z,98645.03
2023-03-05T21:31:16.514Z,98656.88
2023-03-05T21:41:38.074Z,98651.88
2023-03-05T21:52:11.665Z,98639.25
2023-03-05T22:02:33.007Z,98644.69
2023-03-05T22:13:12.253Z,98632.09
2023-03-05T22:23:36.721Z,98626.19
2023-03-05T22:33:58.358Z,98631.94
2023-03-05T22:44:19.914Z,98638.38
2023-03-05T22:54:41.231Z,98627.50
2023-03-05T23:05:03.505Z,98618.59
2023-03-05T23:15:32.484Z,98607.72
2023-03-05T23:25:53.813Z,98603.50
2023-03-05T23:36:15.484Z,98586.81
2023-03-05T23:46:37.034Z,98589.97
2023-03-05T23:56:58.473Z,98582.09
